Time;durP1;ratioP1;P1;durP2;ratioP2;P2;SDS_P1;SDS_P2;PMS_P1;PMS_P2;Temp;Humidity;BMP_temperature;BMP_pressure;BME280_temperature;BME280_humidity;BME280_pressure;Samples;Min_cycle;Max_cycle;Signal;HPM_P1;HPM_P2
2022/03/24 00:02:14;;;;;;;5.43;2.80;;;;;;;-0.97;56.91;97146.25;5115989;28;20019;-67
2022/03/24 00:04:40;;;;;;;4.88;2.35;;;;;;;-1.03;56.84;97141.84;5115921;28;20023;-67
2022/03/24 00:07:06;;;;;;;6.80;2.90;;;;;;;-1.08;57.25;97136.63;5115794;28;20027;-67
2022/03/24 00:09:32;;;;;;;6.57;2.80;;;;;;;-1.06;57.33;97139.22;5115837;28;20027;-67
2022/03/24 00:11:58;;;;;;;5.13;2.80;;;;;;;-1.10;57.38;97133.19;5115536;28;20024;-67
2022/03/24 00:14:24;;;;;;;9.20;2.80;;;;;;;-1.17;58.16;97139.06;5115813;28;20031;-67
2022/03/24 00:16:50;;;;;;;8.35;3.17;;;;;;;-1.13;58.24;97132.25;5115655;28;20028;-67
2022/03/24 00:19:19;;;;;;;4.70;2.42;;;;;;;-1.10;58.45;97137.44;5115762;28;20538;-67
2022/03/24 00:21:46;;;;;;;5.57;3.30;;;;;;;-1.11;58.72;97125.44;5115568;28;20039;-67
2022/03/24 00:24:11;;;;;;;10.40;3.03;;;;;;;-1.15;58.62;97117.69;5115565;28;20030;-67
2022/03/24 00:26:37;;;;;;;9.35;3.05;;;;;;;-1.16;59.00;97125.38;5115543;28;20031;-67
2022/03/24 00:29:03;;;;;;;5.13;2.92;;;;;;;-1.21;59.78;97119.31;5115647;28;20035;-67
2022/03/24 00:31:30;;;;;;;10.85;2.88;;;;;;;-1.31;60.00;97106.28;5115328;28;20023;-67
2022/03/24 00:33:56;;;;;;;7.88;2.88;;;;;;;-1.29;59.84;97121.72;5115300;28;20093;-67
2022/03/24 00:36:22;;;;;;;8.82;2.53;;;;;;;-1.38;60.32;97111.28;5115190;28;20023;-67
2022/03/24 00:38:52;;;;;;;10.38;3.05;;;;;;;-1.36;60.58;97107.03;5115291;28;20016;-67
2022/03/24 00:41:19;;;;;;;5.72;3.05;;;;;;;-1.36;61.24;97114.75;5115157;28;20047;-67
2022/03/24 00:43:44;;;;;;;6.55;2.80;;;;;;;-1.42;61.38;97106.09;5115122;28;20031;-67
2022/03/24 00:46:10;;;;;;;6.22;2.65;;;;;;;-1.45;62.10;97105.13;5115026;28;20039;-67
2022/03/24 00:48:35;;;;;;;9.65;2.50;;;;;;;-1.45;61.87;97100.88;5115018;28;20028;-67
2022/03/24 00:51:01;;;;;;;4.90;2.75;;;;;;;-1.43;61.65;97103.47;5115131;28;20024;-67
2022/03/24 00:53:29;;;;;;;5.63;2.55;;;;;;;-1.41;61.97;97097.53;5115055;28;20051;-67
2022/03/24 00:55:56;;;;;;;7.65;2.70;;;;;;;-1.34;62.33;97095.09;5114821;28;20454;-67
2022/03/24 00:58:22;;;;;;;6.10;3.25;;;;;;;-1.31;62.20;97088.31;5114864;28;20024;-67
2022/03/24 01:00:47;;;;;;;9.13;3.25;;;;;;;-1.32;62.30;97083.16;5114870;28;20035;-67
2022/03/24 01:03:13;;;;;;;7.97;3.13;;;;;;;-1.22;62.00;97081.59;5114784;28;20031;-67
2022/03/24 01:05:39;;;;;;;8.55;2.83;;;;;;;-1.33;61.91;97092.53;5114918;28;20036;-67
2022/03/24 01:08:08;;;;;;;11.55;3.00;;;;;;;-1.31;61.70;97078.03;5114668;28;20042;-67
2022/03/24 01:10:34;;;;;;;8.48;2.88;;;;;;;-1.25;61.89;97073.84;5114641;28;20478;-67
2022/03/24 01:13:00;;;;;;;8.13;2.88;;;;;;;-1.21;61.42;97067.94;5114586;27;20016;-67
2022/03/24 01:15:27;;;;;;;6.72;3.17;;;;;;;-1.32;62.10;97070.31;5114553;28;20099;-67
2022/03/24 01:17:54;;;;;;;9.75;3.10;;;;;;;-1.23;61.96;97051.63;5114661;28;20027;-67
2022/03/24 01:20:21;;;;;;;7.07;2.92;;;;;;;-1.13;61.64;97052.63;5114324;28;20029;-67
2022/03/24 01:22:46;;;;;;;11.43;3.22;;;;;;;-1.10;61.53;97045.88;5113773;28;20529;-67
2022/03/24 01:25:12;;;;;;;10.27;3.53;;;;;;;-1.05;61.26;97051.06;5114132;28;20129;-67
2022/03/24 01:27:38;;;;;;;6.22;3.25;;;;;;;-0.99;61.46;97040.91;5114216;28;20016;-68
2022/03/24 01:30:08;;;;;;;11.52;4.53;;;;;;;-0.97;61.41;97038.38;5114336;28;20027;-67
2022/03/24 01:32:34;;;;;;;9.40;3.25;;;;;;;-1.05;61.91;97039.09;5114361;28;20032;-67
2022/03/24 01:35:01;;;;;;;6.25;3.00;;;;;;;-1.09;62.00;97042.44;5114173;28;20050;-67
2022/03/24 01:37:26;;;;;;;5.05;3.08;;;;;;;-1.07;61.94;97038.22;5114092;28;20065;-67
2022/03/24 01:39:52;;;;;;;7.50;4.07;;;;;;;-1.08;62.49;97036.47;5113812;28;20173;-67
2022/03/24 01:42:19;;;;;;;6.57;4.75;;;;;;;-1.07;62.32;97037.34;5114055;28;20503;-67
2022/03/24 01:44:48;;;;;;;10.43;3.95;;;;;;;-1.10;62.46;97035.59;5113925;28;20042;-67
2022/03/24 01:47:16;;;;;;;10.68;4.10;;;;;;;-1.10;62.28;97035.59;5114032;28;20019;-67
2022/03/24 01:49:48;;;;;;;6.22;3.65;;;;;;;-1.18;62.72;97035.47;5113898;28;20019;-67
2022/03/24 01:52:17;;;;;;;7.18;3.95;;;;;;;-1.08;62.02;97033.91;5113847;28;20024;-67
2022/03/24 01:54:51;;;;;;;11.10;3.60;;;;;;;-0.97;62.13;97030.66;5113900;28;20072;-67
2022/03/24 01:57:18;;;;;;;6.13;3.05;;;;;;;-0.95;62.64;97028.97;5113830;28;20051;-67
2022/03/24 01:59:43;;;;;;;12.40;3.17;;;;;;;-0.94;62.78;97030.69;5113778;28;20039;-67
2022/03/24 02:02:11;;;;;;;12.45;3.20;;;;;;;-0.87;62.73;97022.25;5113705;28;20489;-67
2022/03/24 02:04:37;;;;;;;11.30;2.88;;;;;;;-0.79;62.41;97025.78;5113610;28;20024;-67
2022/03/24 02:07:05;;;;;;;6.45;3.33;;;;;;;-0.74;61.55;97019.84;5113764;28;20020;-68
2022/03/24 02:09:31;;;;;;;8.70;3.30;;;;;;;-0.68;61.57;97019.94;5113660;28;20032;-67
2022/03/24 02:11:57;;;;;;;5.90;3.08;;;;;;;-0.65;61.28;97020.84;5113685;28;20148;-67
2022/03/24 02:14:23;;;;;;;4.43;2.65;;;;;;;-0.68;61.29;97020.81;5113500;28;20552;-67
2022/03/24 02:16:49;;;;;;;5.10;3.30;;;;;;;-0.66;60.98;97025.97;5113571;28;20051;-68
2022/03/24 02:19:23;;;;;;;10.07;3.83;;;;;;;-0.63;61.43;97015.75;5113710;28;20099;-67
2022/03/24 02:21:53;;;;;;;8.50;3.40;;;;;;;-0.56;60.63;97022.69;5113528;28;20420;-67
2022/03/24 02:24:20;;;;;;;5.63;3.60;;;;;;;-0.49;60.92;97015.06;5113578;28;20055;-67
2022/03/24 02:26:47;;;;;;;6.75;3.53;;;;;;;-0.51;61.12;97013.31;5113558;28;20059;-67
2022/03/24 02:29:16;;;;;;;9.68;3.25;;;;;;;-0.46;60.94;97017.66;5113612;28;20061;-67
2022/03/24 02:31:46;;;;;;;13.25;3.38;;;;;;;-0.51;60.93;97015.88;5113455;28;20424;-67
2022/03/24 02:34:40;;;;;;;;;;;;;;;-0.59;60.85;97019.19;5114260;28;20031;-67
2022/03/24 02:37:12;;;;;;;11.10;3.00;;;;;;;-0.57;60.60;97010.66;5117617;28;20330;-67
2022/03/24 02:39:43;;;;;;;10.80;3.45;;;;;;;-0.48;60.54;97009.06;5117410;28;20367;-67
2022/03/24 02:42:15;;;;;;;9.77;2.90;;;;;;;-0.51;60.44;97009.91;5117608;28;20051;-67
2022/03/24 02:44:50;;;;;;;6.63;2.97;;;;;;;-0.50;60.43;97009.06;5117621;28;20019;-67
2022/03/24 02:47:16;;;;;;;7.25;3.35;;;;;;;-0.54;60.29;97010.72;5117362;28;20041;-67
2022/03/24 02:49:44;;;;;;;6.32;3.13;;;;;;;-0.51;60.05;97008.19;5117293;28;20051;-67
2022/03/24 02:52:10;;;;;;;6.25;3.45;;;;;;;-0.54;60.55;97002.16;5117296;28;20098;-67
2022/03/24 02:54:36;;;;;;;14.23;3.90;;;;;;;-0.52;60.10;97011.59;5117338;28;20361;-67
2022/03/24 02:57:03;;;;;;;6.28;3.10;;;;;;;-0.45;60.17;97012.53;5117255;28;20019;-67
2022/03/24 02:59:29;;;;;;;6.88;2.78;;;;;;;-0.45;60.22;97004.81;5117040;28;20480;-67
2022/03/24 03:02:16;;;;;;;10.85;3.30;;;;;;;-0.56;60.39;97004.69;5117046;28;20028;-67
2022/03/24 03:04:45;;;;;;;11.23;3.25;;;;;;;-0.60;60.54;96999.50;5117142;28;20462;-67
2022/03/24 03:07:11;;;;;;;12.50;3.33;;;;;;;-0.60;60.53;97007.19;5117045;28;20023;-67
2022/03/24 03:09:38;;;;;;;6.05;3.00;;;;;;;-0.57;60.78;97002.94;5117138;28;20042;-67
2022/03/24 03:12:05;;;;;;;7.15;3.25;;;;;;;-0.56;60.79;96999.56;5116907;28;20077;-67
2022/03/24 03:14:31;;;;;;;9.15;3.38;;;;;;;-0.55;61.36;97006.41;5116899;28;20427;-68
2022/03/24 03:16:58;;;;;;;6.57;3.28;;;;;;;-0.53;61.09;97003.88;5116731;28;20034;-67
2022/03/24 03:19:24;;;;;;;6.68;3.15;;;;;;;-0.52;60.97;97001.31;5116860;28;20020;-67
2022/03/24 03:21:50;;;;;;;5.43;2.47;;;;;;;-0.68;61.31;96997.69;5116837;27;20032;-67
2022/03/24 03:24:17;;;;;;;8.65;3.40;;;;;;;-0.62;61.26;96999.47;5116706;28;20026;-68
2022/03/24 03:26:43;;;;;;;11.68;3.60;;;;;;;-0.57;61.11;96999.53;5116542;28;20497;-68
2022/03/24 03:29:09;;;;;;;6.78;3.42;;;;;;;-0.56;61.07;97004.69;5116747;28;20042;-68
2022/03/24 03:31:35;;;;;;;8.98;3.70;;;;;;;-0.52;61.21;97003.88;5116674;28;20023;-68
2022/03/24 03:34:03;;;;;;;8.40;3.95;;;;;;;-0.58;61.28;97000.34;5116738;28;20099;-68
2022/03/24 03:36:30;;;;;;;8.85;3.17;;;;;;;-0.54;61.24;96997.00;5116383;28;20034;-68
2022/03/24 03:38:57;;;;;;;5.97;3.05;;;;;;;-0.53;61.25;96993.59;5116387;28;20102;-67
2022/03/24 03:41:24;;;;;;;12.18;3.90;;;;;;;-0.55;60.88;96991.00;5116173;28;20043;-67
2022/03/24 03:43:50;;;;;;;8.65;3.20;;;;;;;-0.52;61.04;96983.31;5116442;28;20027;-68
2022/03/24 03:46:16;;;;;;;10.65;4.90;;;;;;;-0.57;61.24;96992.66;5115696;28;20027;-68
2022/03/24 03:48:43;;;;;;;8.63;4.28;;;;;;;-0.58;61.25;96987.50;5116253;28;20031;-67
2022/03/24 03:51:09;;;;;;;10.18;4.20;;;;;;;-0.59;61.06;96989.22;5116123;28;20022;-67
2022/03/24 03:53:38;;;;;;;10.60;5.80;;;;;;;-0.61;61.34;96987.50;5115997;28;20028;-67
2022/03/24 03:56:05;;;;;;;12.45;4.40;;;;;;;-0.68;61.47;96992.53;5115993;28;20023;-67
2022/03/24 03:58:31;;;;;;;13.13;4.05;;;;;;;-0.56;61.61;96985.84;5116090;28;20051;-67
2022/03/24 04:00:57;;;;;;;9.63;3.60;;;;;;;-0.67;61.39;96980.53;5115970;28;20024;-67
2022/03/24 04:03:36;;;;;;;10.75;4.03;;;;;;;-0.71;61.79;96986.47;5115891;28;20449;-67
2022/03/24 04:06:09;;;;;;;8.98;4.00;;;;;;;-0.68;61.45;96981.38;5115946;28;20389;-67
2022/03/24 04:08:36;;;;;;;8.48;4.32;;;;;;;-0.74;62.11;96977.03;5115992;28;20035;-67
2022/03/24 04:11:02;;;;;;;8.07;4.18;;;;;;;-0.66;61.53;96975.41;5115850;28;20020;-67
2022/03/24 04:13:28;;;;;;;8.07;4.20;;;;;;;-0.71;61.56;96973.63;5115788;28;20534;-67
2022/03/24 04:15:54;;;;;;;7.13;2.97;;;;;;;-0.74;61.87;96974.47;5115572;28;20024;-67
2022/03/24 04:18:22;;;;;;;12.20;4.28;;;;;;;-0.78;62.12;96985.56;5115565;28;20061;-67
2022/03/24 04:20:48;;;;;;;9.20;3.17;;;;;;;-0.79;62.08;96978.66;5115576;28;20036;-67
2022/03/24 04:23:14;;;;;;;7.57;3.63;;;;;;;-0.81;61.96;96986.34;5115612;28;20020;-67
2022/03/24 04:25:40;;;;;;;9.98;4.35;;;;;;;-0.75;62.26;96984.72;5115451;28;20024;-67
2022/03/24 04:28:07;;;;;;;7.50;3.20;;;;;;;-0.76;62.03;96978.72;5115604;28;20020;-68
2022/03/24 04:30:33;;;;;;;8.98;3.38;;;;;;;-0.70;61.77;96980.50;5114130;28;20020;-68
2022/03/24 04:32:59;;;;;;;10.82;3.47;;;;;;;-0.60;61.91;96968.66;5115415;28;20024;-67
2022/03/24 04:35:26;;;;;;;8.73;3.33;;;;;;;-0.56;61.59;96979.00;5115294;28;20260;-67
2022/03/24 04:37:52;;;;;;;7.70;3.30;;;;;;;-0.44;61.51;96970.56;5115276;28;20603;-67
2022/03/24 04:40:19;;;;;;;21.77;4.68;;;;;;;-0.29;61.11;96972.47;5115049;28;20067;-67
2022/03/24 04:42:50;;;;;;;7.07;4.00;;;;;;;-0.28;61.43;96963.03;5115294;27;20031;-67
2022/03/24 04:45:19;;;;;;;12.70;4.38;;;;;;;-0.28;61.14;96963.03;5115318;28;20034;-67
2022/03/24 04:47:47;;;;;;;10.88;4.70;;;;;;;-0.18;61.06;96974.31;5115333;28;20030;-67
2022/03/24 04:50:14;;;;;;;13.98;4.78;;;;;;;-0.14;61.11;96964.06;5115213;28;20068;-67
2022/03/24 04:52:40;;;;;;;12.75;4.72;;;;;;;-0.01;60.86;96971.91;5115033;27;20030;-67
2022/03/24 04:55:09;;;;;;;19.17;4.90;;;;;;;0.10;60.10;96961.75;5114985;28;20060;-67
2022/03/24 04:57:35;;;;;;;8.20;3.80;;;;;;;0.46;60.36;96960.38;5114327;28;20020;-67
2022/03/24 05:00:01;;;;;;;12.13;5.30;;;;;;;1.10;57.83;96968.59;5114466;28;20027;-67
2022/03/24 05:02:27;;;;;;;8.48;4.93;;;;;;;1.78;56.58;96956.91;5114907;28;20023;-67
2022/03/24 05:04:54;;;;;;;11.55;5.60;;;;;;;2.70;53.90;96957.03;5114824;28;20015;-67
2022/03/24 05:07:20;;;;;;;12.80;5.05;;;;;;;3.64;51.50;96956.88;5114711;28;20028;-67
2022/03/24 05:09:45;;;;;;;11.38;4.82;;;;;;;4.53;48.39;96959.00;5114998;28;20020;-67
2022/03/24 05:12:12;;;;;;;10.77;5.20;;;;;;;5.31;46.15;96960.94;5114560;27;20024;-67
2022/03/24 05:14:38;;;;;;;10.68;4.50;;;;;;;6.03;43.50;96947.13;5114447;28;20381;-67
2022/03/24 05:17:05;;;;;;;9.23;4.43;;;;;;;6.99;42.23;96951.78;5114507;28;20020;-68
2022/03/24 05:19:31;;;;;;;9.02;4.72;;;;;;;7.70;41.04;96960.91;5114535;28;20040;-67
2022/03/24 05:21:57;;;;;;;9.25;4.90;;;;;;;8.50;39.36;96958.38;5114398;28;20453;-68
2022/03/24 05:24:22;;;;;;;11.80;4.78;;;;;;;9.30;38.10;96959.97;5114251;28;20102;-68
2022/03/24 05:26:48;;;;;;;11.43;4.60;;;;;;;9.64;36.31;96959.06;5114388;28;20019;-66
2022/03/24 05:29:14;;;;;;;15.00;4.97;;;;;;;10.32;35.48;96952.75;5114385;28;20020;-68
2022/03/24 05:31:39;;;;;;;9.75;4.90;;;;;;;11.11;34.06;96959.91;5114241;28;20027;-68
2022/03/24 05:34:05;;;;;;;12.43;4.43;;;;;;;11.82;32.47;96953.09;5114207;28;20494;-68
2022/03/24 05:36:31;;;;;;;6.72;4.20;;;;;;;12.37;31.84;96950.19;5114162;28;20038;-68
2022/03/24 05:38:57;;;;;;;12.68;4.63;;;;;;;12.66;32.05;96944.72;5114175;27;20061;-68
2022/03/24 05:41:24;;;;;;;10.00;4.80;;;;;;;13.24;30.79;96952.88;5113882;28;20530;-68
2022/03/24 05:44:05;;;;;;;11.82;4.45;;;;;;;13.68;30.15;96949.28;5114233;28;20065;-68
2022/03/24 05:46:34;;;;;;;11.70;4.53;;;;;;;14.12;28.82;96950.84;5114108;28;20028;-68
2022/03/24 05:49:01;;;;;;;9.25;4.20;;;;;;;14.65;28.49;96953.66;5114108;28;20389;-68
2022/03/24 05:51:27;;;;;;;9.32;4.68;;;;;;;14.70;28.22;96952.59;5113844;28;20440;-68
2022/03/24 05:53:53;;;;;;;12.73;4.57;;;;;;;15.36;27.50;96958.19;5114001;28;20107;-68
2022/03/24 05:56:19;;;;;;;14.13;4.55;;;;;;;16.04;27.49;96959.09;5113857;28;20107;-68
2022/03/24 05:58:45;;;;;;;7.57;4.72;;;;;;;16.80;25.26;96956.78;5113838;28;20037;-68
2022/03/24 06:01:13;;;;;;;13.80;4.72;;;;;;;17.17;24.89;96964.38;5113749;28;20489;-68
2022/03/24 06:03:41;;;;;;;15.00;5.75;;;;;;;17.18;24.48;96955.50;5113711;28;20542;-68
2022/03/24 06:06:08;;;;;;;10.32;4.35;;;;;;;17.26;25.76;96955.06;5113658;28;20069;-69
2022/03/24 06:08:35;;;;;;;9.18;5.10;;;;;;;17.16;24.38;96954.78;5113680;28;20377;-68
2022/03/24 06:11:01;;;;;;;16.80;5.63;;;;;;;17.65;25.98;96961.59;5113465;28;20381;-67
2022/03/24 06:13:27;;;;;;;13.65;5.03;;;;;;;18.39;24.25;96954.53;5113644;28;20030;-66
2022/03/24 06:15:54;;;;;;;15.13;6.10;;;;;;;18.23;23.34;96957.25;5113613;28;20027;-68
2022/03/24 06:18:20;;;;;;;11.77;5.43;;;;;;;18.53;24.14;96958.91;5113517;28;20030;-66
2022/03/24 06:20:46;;;;;;;8.95;5.05;;;;;;;19.03;22.65;96958.41;5113600;28;20020;-67
2022/03/24 06:23:12;;;;;;;11.35;5.03;;;;;;;19.23;22.08;96957.09;5113690;28;20024;-66
2022/03/24 06:25:41;;;;;;;14.00;5.93;;;;;;;19.19;22.57;96953.81;5113722;28;20034;-67
2022/03/24 06:28:08;;;;;;;17.63;5.85;;;;;;;19.91;20.98;96954.31;5113428;28;20125;-68
2022/03/24 06:30:34;;;;;;;14.50;5.50;;;;;;;19.93;21.16;96959.50;5113410;28;20023;-67
2022/03/24 06:33:00;;;;;;;14.75;5.55;;;;;;;19.91;21.53;96962.28;5113429;28;20062;-68
2022/03/24 06:35:27;;;;;;;12.73;5.35;;;;;;;19.91;21.28;96959.63;5113409;28;20043;-67
2022/03/24 06:37:53;;;;;;;15.98;5.75;;;;;;;19.94;22.07;96961.19;5113653;28;20034;-67
2022/03/24 06:40:19;;;;;;;9.10;5.45;;;;;;;20.04;21.09;96958.78;5113101;28;20468;-68
2022/03/24 06:42:45;;;;;;;11.35;5.53;;;;;;;19.90;20.54;96951.75;5113404;28;20015;-66
2022/03/24 06:45:12;;;;;;;11.95;5.53;;;;;;;20.01;21.40;96966.94;5113371;28;20488;-66
2022/03/24 06:47:41;;;;;;;11.73;4.85;;;;;;;19.89;20.55;96958.00;5113403;28;20024;-68
2022/03/24 06:50:13;;;;;;;8.73;4.57;;;;;;;19.61;20.87;96966.06;5112158;28;20076;-67
2022/03/24 06:52:39;;;;;;;8.27;4.97;;;;;;;19.55;21.57;96964.69;5113192;28;20051;-66
2022/03/24 06:55:06;;;;;;;12.15;5.57;;;;;;;19.60;21.82;96964.38;5113248;28;20085;-68
2022/03/24 06:57:32;;;;;;;9.82;5.32;;;;;;;19.53;21.09;96957.78;5113200;28;20148;-67
2022/03/24 06:59:57;;;;;;;9.77;5.20;;;;;;;19.16;20.58;96963.75;5113281;28;20469;-65
2022/03/24 07:02:23;;;;;;;11.50;5.25;;;;;;;18.91;20.76;96954.75;5113302;28;20076;-67
2022/03/24 07:04:49;;;;;;;12.60;5.43;;;;;;;18.71;21.24;96948.09;5113251;28;20038;-66
2022/03/24 07:07:15;;;;;;;13.43;5.60;;;;;;;18.50;20.74;96951.16;5113075;28;20016;-66
2022/03/24 07:09:40;;;;;;;11.60;5.13;;;;;;;18.28;22.16;96950.75;5112976;28;20020;-68
2022/03/24 07:12:06;;;;;;;9.70;5.40;;;;;;;18.54;21.64;96953.53;5113044;28;20048;-65
2022/03/24 07:14:32;;;;;;;14.00;5.13;;;;;;;18.58;21.86;96959.50;5112948;28;20478;-68
2022/03/24 07:16:57;;;;;;;11.77;5.38;;;;;;;18.91;22.08;96960.06;5113077;28;20026;-65
2022/03/24 07:19:23;;;;;;;12.77;5.07;;;;;;;18.96;21.36;96944.69;5113096;28;20100;-68
2022/03/24 07:21:49;;;;;;;12.63;5.72;;;;;;;18.53;21.37;96953.63;5114572;28;20573;-66
2022/03/24 07:24:15;;;;;;;13.95;5.65;;;;;;;18.56;23.21;96948.13;5116894;28;20042;-65
2022/03/24 07:26:41;;;;;;;13.45;5.78;;;;;;;18.77;21.52;96950.34;5117096;27;20115;-68
2022/03/24 07:29:07;;;;;;;11.50;5.55;;;;;;;18.96;21.00;96942.03;5116850;28;20019;-65
2022/03/24 07:31:33;;;;;;;10.00;5.75;;;;;;;18.60;20.94;96943.50;5115414;28;20040;-67
2022/03/24 07:33:59;;;;;;;11.23;5.57;;;;;;;18.50;21.20;96941.44;5116550;28;20427;-67
2022/03/24 07:36:25;;;;;;;10.63;5.65;;;;;;;18.52;21.43;96946.63;5116462;28;20114;-66
2022/03/24 07:38:53;;;;;;;15.45;6.45;;;;;;;18.54;21.76;96942.06;5116655;28;20469;-66
2022/03/24 07:41:20;;;;;;;14.60;6.15;;;;;;;18.72;22.45;96950.63;5116279;28;20040;-67
2022/03/24 07:43:46;;;;;;;16.65;6.15;;;;;;;18.91;20.04;96944.97;5116502;28;20040;-66
2022/03/24 07:46:12;;;;;;;15.68;5.95;;;;;;;18.60;19.91;96943.50;5116371;27;20023;-67
2022/03/24 07:48:38;;;;;;;17.90;6.35;;;;;;;18.78;20.67;96944.13;5116416;27;20533;-67
2022/03/24 07:51:05;;;;;;;13.43;6.15;;;;;;;19.08;20.92;96936.91;5116434;28;20097;-67
2022/03/24 07:53:49;;;;;;;12.30;5.93;;;;;;;19.34;20.92;96945.78;5116362;28;20019;-66
2022/03/24 07:56:21;;;;;;;11.32;6.00;;;;;;;19.30;19.55;96942.47;5116109;28;20381;-67
2022/03/24 07:58:46;;;;;;;10.27;5.75;;;;;;;19.19;20.25;96942.34;5116277;28;20024;-66
2022/03/24 08:01:13;;;;;;;11.02;6.07;;;;;;;18.98;19.86;96939.28;5116212;28;20097;-67
2022/03/24 08:03:38;;;;;;;13.13;7.20;;;;;;;18.72;21.13;96933.91;5116065;28;20096;-65
2022/03/24 08:06:04;;;;;;;13.43;6.40;;;;;;;18.68;20.51;96938.53;5116089;28;20470;-64
2022/03/24 08:08:30;;;;;;;14.18;6.70;;;;;;;18.79;21.00;96938.69;5115956;28;20414;-65
2022/03/24 08:10:57;;;;;;;15.32;6.72;;;;;;;18.81;20.76;96926.19;5115946;28;20024;-66
2022/03/24 08:13:23;;;;;;;14.27;6.75;;;;;;;19.02;21.49;96924.91;5115973;28;20098;-67
2022/03/24 08:15:50;;;;;;;12.55;5.82;;;;;;;19.43;20.03;96917.78;5115865;28;20027;-65
2022/03/24 08:18:17;;;;;;;10.30;6.40;;;;;;;19.51;19.05;96920.72;5116012;28;20019;-65
2022/03/24 08:20:47;;;;;;;16.40;6.78;;;;;;;19.54;20.19;96927.66;5115673;28;20030;-68
2022/03/24 08:23:13;;;;;;;14.35;6.00;;;;;;;19.78;20.19;96926.91;5115570;28;20489;-66
2022/03/24 08:25:40;;;;;;;15.77;7.18;;;;;;;19.79;19.51;96921.50;5115711;28;20024;-67
2022/03/24 08:28:06;;;;;;;16.80;6.47;;;;;;;19.87;18.44;96920.13;5115715;27;20368;-66
2022/03/24 08:30:32;;;;;;;11.30;6.30;;;;;;;19.98;18.89;96912.22;5115449;27;20024;-67
2022/03/24 08:32:57;;;;;;;11.90;6.32;;;;;;;20.08;20.10;96915.13;5114050;28;20030;-67
2022/03/24 08:35:23;;;;;;;13.82;6.72;;;;;;;19.75;18.52;96914.69;5115339;28;20028;-67
2022/03/24 08:37:49;;;;;;;12.85;6.97;;;;;;;19.59;19.19;96899.00;5115384;28;20034;-67
2022/03/24 08:40:15;;;;;;;11.38;6.97;;;;;;;19.52;19.20;96903.88;5115034;28;20058;-66
2022/03/24 08:42:42;;;;;;;15.32;6.60;;;;;;;19.60;19.44;96898.06;5115250;27;20023;-68
2022/03/24 08:45:11;;;;;;;13.98;6.30;;;;;;;19.73;18.89;96898.03;5114095;28;20024;-65
2022/03/24 08:47:37;;;;;;;14.98;7.32;;;;;;;19.42;19.79;96902.81;5115031;28;20056;-66
2022/03/24 08:50:07;;;;;;;12.35;7.93;;;;;;;19.39;20.28;96900.38;5114984;28;20027;-65
2022/03/24 08:52:33;;;;;;;10.48;6.90;;;;;;;19.59;19.88;96892.84;5115094;28;20024;-66
2022/03/24 08:54:58;;;;;;;10.68;7.22;;;;;;;19.20;19.03;96891.00;5115104;28;20035;-66
2022/03/24 08:57:28;;;;;;;13.50;7.05;;;;;;;18.77;18.87;96895.56;5114845;28;20027;-65
2022/03/24 09:00:03;;;;;;;15.88;7.32;;;;;;;18.67;19.80;96905.06;5114830;28;20377;-65
2022/03/24 09:02:28;;;;;;;14.32;7.70;;;;;;;18.88;20.21;96894.00;5115014;28;20102;-67
2022/03/24 09:04:54;;;;;;;14.90;7.25;;;;;;;19.18;21.48;96895.59;5114777;28;20107;-65
2022/03/24 09:07:20;;;;;;;11.40;7.55;;;;;;;19.28;18.69;96904.63;5114863;28;20046;-65
2022/03/24 09:09:46;;;;;;;15.05;8.73;;;;;;;19.15;19.29;96903.75;5114691;28;20035;-66
2022/03/24 09:12:12;;;;;;;12.77;7.55;;;;;;;19.22;20.25;96898.84;5114697;28;20102;-67
2022/03/24 09:14:38;;;;;;;16.70;7.38;;;;;;;19.50;19.93;96907.59;5114606;28;20028;-67
2022/03/24 09:17:05;;;;;;;16.38;7.65;;;;;;;19.33;18.55;96899.00;5114339;28;20028;-65
2022/03/24 09:19:31;;;;;;;12.10;7.30;;;;;;;19.40;18.72;96897.63;5114501;28;20020;-67
2022/03/24 09:21:57;;;;;;;14.10;7.05;;;;;;;19.60;19.60;96900.72;5114431;28;20023;-66
2022/03/24 09:24:23;;;;;;;11.02;7.68;;;;;;;19.62;18.96;96890.81;5114372;27;20030;-66
2022/03/24 09:26:49;;;;;;;15.45;7.90;;;;;;;19.28;18.61;96895.78;5114306;27;20027;-66
2022/03/24 09:29:14;;;;;;;16.35;7.40;;;;;;;19.10;18.67;96892.59;5114241;28;20107;-66
2022/03/24 09:31:40;;;;;;;15.30;8.02;;;;;;;18.95;20.24;96895.28;5114439;28;20027;-66
2022/03/24 09:34:06;;;;;;;10.32;7.35;;;;;;;19.16;19.51;96890.38;5114336;28;20024;-66
2022/03/24 09:36:31;;;;;;;10.30;7.05;;;;;;;19.01;17.98;96902.84;5114065;28;20112;-66
2022/03/24 09:38:57;;;;;;;11.27;7.07;;;;;;;18.76;19.30;96903.59;5114148;28;20551;-66
2022/03/24 09:41:26;;;;;;;11.85;7.18;;;;;;;18.71;19.81;96897.75;5113825;28;20552;-66
2022/03/24 09:43:53;;;;;;;15.80;7.57;;;;;;;18.88;20.58;96902.81;5113783;28;20034;-66
2022/03/24 09:46:20;;;;;;;12.95;6.80;;;;;;;18.66;18.39;96900.72;5114090;28;20020;-65
2022/03/24 09:48:46;;;;;;;15.38;7.30;;;;;;;18.69;19.81;96890.75;5113973;28;20031;-66
2022/03/24 09:51:13;;;;;;;10.38;7.47;;;;;;;18.99;19.23;96888.00;5114112;28;20020;-67
2022/03/24 09:53:40;;;;;;;15.48;7.10;;;;;;;18.80;18.61;96887.41;5113994;28;20023;-67
2022/03/24 09:56:06;;;;;;;11.10;7.47;;;;;;;18.78;21.56;96880.53;5113786;28;20114;-67
2022/03/24 09:58:32;;;;;;;16.35;7.55;;;;;;;18.93;19.07;96873.31;5113888;28;20051;-66
2022/03/24 10:00:57;;;;;;;19.95;7.30;;;;;;;19.18;19.92;96877.03;5113870;28;20032;-66
2022/03/24 10:03:23;;;;;;;12.40;6.90;;;;;;;19.17;19.26;96884.13;5113860;28;20445;-67
2022/03/24 10:06:00;;;;;;;11.25;7.05;;;;;;;19.30;19.27;96881.47;5113734;28;20027;-67
2022/03/24 10:08:28;;;;;;;7.95;6.35;;;;;;;19.47;18.71;96881.28;5113875;28;20031;-66
2022/03/24 10:10:59;;;;;;;13.60;7.13;;;;;;;19.41;19.02;96869.28;5113666;28;20032;-66
2022/03/24 10:13:53;;;;;;;13.52;6.47;;;;;;;19.28;18.85;96875.44;5113634;28;20038;-67
2022/03/24 10:16:34;;;;;;;10.20;6.65;;;;;;;19.37;17.97;96860.69;5113542;28;20041;-67
2022/03/24 10:19:01;;;;;;;;;;;;;;;19.41;19.38;96858.66;5114143;28;20020;-66
2022/03/24 10:21:31;;;;;;;9.55;6.72;;;;;;;19.30;18.65;96868.22;5113698;28;20003;-65
2022/03/24 10:24:01;;;;;;;10.80;6.87;;;;;;;19.24;19.05;96868.66;5112320;28;20085;-66
2022/03/24 10:26:44;;;;;;;11.43;6.32;;;;;;;19.39;18.83;96861.41;5113585;28;20031;-67
2022/03/24 10:29:17;;;;;;;12.30;7.15;;;;;;;19.30;19.04;96860.25;5113588;28;20031;-66
2022/03/24 10:31:43;;;;;;;12.13;6.28;;;;;;;19.34;18.79;96860.03;5113473;28;20019;-66
2022/03/24 10:34:11;;;;;;;14.52;6.75;;;;;;;19.24;18.61;96850.09;5113528;28;20042;-67
2022/03/24 10:36:38;;;;;;;14.88;6.65;;;;;;;19.22;18.91;96854.63;5113473;28;20350;-66
2022/03/24 10:39:05;;;;;;;12.18;6.90;;;;;;;19.19;17.83;96838.94;5113177;28;20042;-66
2022/03/24 10:41:34;;;;;;;12.20;6.72;;;;;;;18.93;17.91;96847.69;5113330;28;20019;-66
2022/03/24 10:44:12;;;;;;;9.73;5.93;;;;;;;18.99;19.03;96846.41;5113266;28;20045;-66
2022/03/24 10:46:44;;;;;;;13.02;6.68;;;;;;;19.12;19.15;96833.22;5113326;28;20093;-66
2022/03/24 10:49:17;;;;;;;7.93;5.70;;;;;;;18.98;18.29;96830.59;5113404;28;20111;-67
2022/03/24 10:51:45;;;;;;;12.63;6.93;;;;;;;19.05;18.26;96839.84;5113294;28;20545;-67
2022/03/24 10:54:20;;;;;;;11.75;6.25;;;;;;;18.91;18.93;96832.84;5113103;28;20461;-67
2022/03/24 10:57:03;;;;;;;13.40;6.15;;;;;;;18.94;19.55;96822.88;5114565;28;20036;-66
2022/03/24 10:59:35;;;;;;;11.43;6.80;;;;;;;18.68;19.36;96833.44;5116072;28;20028;-67
2022/03/24 11:02:01;;;;;;;11.75;7.05;;;;;;;18.60;19.36;96816.34;5117127;28;20027;-65
2022/03/24 11:04:26;;;;;;;14.60;6.95;;;;;;;18.64;20.00;96808.09;5117114;28;20030;-66
2022/03/24 11:06:52;;;;;;;18.42;7.55;;;;;;;18.85;19.98;96810.25;5117197;28;20016;-67
2022/03/24 11:09:23;;;;;;;10.25;6.47;;;;;;;18.90;19.14;96815.25;5117240;28;20435;-66
2022/03/24 11:12:08;;;;;;;;;;;;;;;18.92;20.59;96786.81;5117507;28;20023;-66
2022/03/24 11:14:39;;;;;;;9.70;6.68;;;;;;;19.04;20.28;96796.59;5117069;28;19912;-67
2022/03/24 11:17:05;;;;;;;11.77;6.88;;;;;;;19.09;19.70;96798.09;5116895;28;20055;-67
2022/03/24 11:19:32;;;;;;;12.20;6.07;;;;;;;19.17;19.93;96795.75;5116872;27;20084;-66
2022/03/24 11:21:58;;;;;;;10.07;6.15;;;;;;;19.22;19.44;96798.09;5116743;27;20034;-67
2022/03/24 11:24:25;;;;;;;11.50;6.68;;;;;;;19.28;19.40;96784.41;5116974;28;20024;-67
2022/03/24 11:26:51;;;;;;;11.75;5.85;;;;;;;19.08;19.19;96796.41;5116796;28;20063;-66
2022/03/24 11:29:17;;;;;;;16.02;6.25;;;;;;;18.85;19.12;96785.56;5116736;28;20020;-66
2022/03/24 11:31:47;;;;;;;10.48;6.25;;;;;;;19.00;21.69;96770.41;5115468;28;20387;-66